createdAt,value
2023-05-25T00:01:37.495Z,10.90
2023-05-25T00:04:04.763Z,10.80
2023-05-25T00:06:33.144Z,10.80
2023-05-25T00:08:59.986Z,10.80
2023-05-25T00:11:27.155Z,10.70
2023-05-25T00:13:54.502Z,10.70
2023-05-25T00:16:21.636Z,10.70
2023-05-25T00:18:48.739Z,10.60
2023-05-25T00:21:16.317Z,10.60
2023-05-25T00:23:43.555Z,10.60
2023-05-25T00:26:10.477Z,10.50
2023-05-25T00:28:37.357Z,10.50
2023-05-25T00:31:04.221Z,10.50
2023-05-25T00:33:31.244Z,10.40
2023-05-25T00:35:58.537Z,10.40
2023-05-25T00:38:25.576Z,10.40
2023-05-25T00:40:59.249Z,10.30
2023-05-25T00:43:26.156Z,10.30
2023-05-25T00:45:53.857Z,10.30
2023-05-25T00:48:20.919Z,10.20
2023-05-25T00:50:48.076Z,10.20
2023-05-25T00:53:15.263Z,10.10
2023-05-25T00:55:53.285Z,10.10
2023-05-25T00:58:26.883Z,10.10
2023-05-25T01:00:58.310Z,10.10
2023-05-25T01:03:29.894Z,10.00
2023-05-25T01:05:58.695Z,10.00
2023-05-25T01:08:27.525Z,10.00
2023-05-25T01:10:57.093Z,9.90
2023-05-25T01:13:24.497Z,9.90
2023-05-25T01:15:52.577Z,9.90
2023-05-25T01:18:19.416Z,9.80
2023-05-25T01:21:13.282Z,9.80
2023-05-25T01:28:17.094Z,9.60
2023-05-25T01:30:48.288Z,9.60
2023-05-25T01:33:21.125Z,9.60
2023-05-25T01:35:48.861Z,9.60
2023-05-25T01:38:17.686Z,9.50
2023-05-25T01:40:44.814Z,9.50
2023-05-25T01:43:11.923Z,9.50
2023-05-25T01:45:39.199Z,9.50
2023-05-25T01:48:39.499Z,9.40
2023-05-25T01:51:21.454Z,9.40
2023-05-25T01:54:19.052Z,9.40
2023-05-25T01:56:49.878Z,9.40
2023-05-25T01:59:23.030Z,9.30
2023-05-25T02:01:53.766Z,9.30
2023-05-25T02:04:22.712Z,9.30
2023-05-25T02:06:52.061Z,9.30
2023-05-25T02:09:20.501Z,9.20
2023-05-25T02:11:47.654Z,9.20
2023-05-25T02:14:15.996Z,9.20
2023-05-25T02:16:45.942Z,9.20
2023-05-25T02:19:14.884Z,9.10
2023-05-25T02:21:42.514Z,9.10
2023-05-25T02:24:10.187Z,9.10
2023-05-25T02:26:38.958Z,9.00
2023-05-25T02:29:06.702Z,9.00
2023-05-25T02:31:33.934Z,9.00
2023-05-25T02:34:01.811Z,9.00
2023-05-25T02:36:28.803Z,9.00
2023-05-25T02:38:55.658Z,8.90
2023-05-25T02:41:24.249Z,8.90
2023-05-25T02:43:51.365Z,8.90
2023-05-25T02:46:18.543Z,8.90
2023-05-25T02:48:46.517Z,8.80
2023-05-25T02:51:13.817Z,8.80
2023-05-25T02:53:41.380Z,8.80
2023-05-25T02:56:10.248Z,8.80
2023-05-25T02:58:38.486Z,8.80
2023-05-25T03:01:11.051Z,8.70
2023-05-25T03:03:42.708Z,8.70
2023-05-25T03:06:09.576Z,8.70
2023-05-25T03:08:36.526Z,8.70
2023-05-25T03:11:03.467Z,8.70
2023-05-25T03:13:30.764Z,8.60
2023-05-25T03:15:57.939Z,8.60
2023-05-25T03:18:24.991Z,8.60
2023-05-25T03:20:51.999Z,8.50
2023-05-25T03:23:18.850Z,8.50
2023-05-25T03:25:45.943Z,8.50
2023-05-25T03:28:13.548Z,8.50
2023-05-25T03:30:41.673Z,8.50
2023-05-25T03:33:09.591Z,8.40
2023-05-25T03:35:42.734Z,8.40
2023-05-25T03:38:09.742Z,8.40
2023-05-25T03:40:36.634Z,8.40
2023-05-25T03:43:03.628Z,8.40
2023-05-25T03:45:30.607Z,8.40
2023-05-25T03:47:57.760Z,8.30
2023-05-25T03:50:24.630Z,8.30
2023-05-25T03:52:51.570Z,8.30
2023-05-25T03:55:18.522Z,8.30
2023-05-25T03:57:45.657Z,8.30
2023-05-25T04:00:13.613Z,8.30
2023-05-25T04:02:40.571Z,8.30
2023-05-25T04:05:08.108Z,8.30
2023-05-25T04:07:37.013Z,8.30
2023-05-25T04:10:04.961Z,8.30
2023-05-25T04:12:32.524Z,8.30
2023-05-25T04:15:00.142Z,8.30
2023-05-25T04:17:28.284Z,8.40
2023-05-25T04:19:56.328Z,8.40
2023-05-25T04:22:23.263Z,8.40
2023-05-25T04:24:50.237Z,8.40
2023-05-25T04:27:17.366Z,8.40
2023-05-25T04:29:44.224Z,8.40
2023-05-25T04:32:32.676Z,8.50
2023-05-25T04:35:16.946Z,8.50
2023-05-25T04:37:47.053Z,8.50
2023-05-25T04:40:14.503Z,8.50
2023-05-25T04:42:42.447Z,8.60
2023-05-25T04:45:10.522Z,8.70
2023-05-25T04:47:40.831Z,8.70
2023-05-25T04:50:10.690Z,8.80
2023-05-25T04:52:37.556Z,8.90
2023-05-25T04:55:04.818Z,9.00
2023-05-25T04:57:34.784Z,9.10
2023-05-25T05:00:02.106Z,9.30
2023-05-25T05:02:29.506Z,9.40
2023-05-25T05:04:57.644Z,9.50
2023-05-25T05:07:24.589Z,9.60
2023-05-25T05:09:51.478Z,9.80
2023-05-25T05:12:18.448Z,9.90
2023-05-25T05:14:49.069Z,10.00
2023-05-25T05:17:17.558Z,10.10
2023-05-25T05:19:45.720Z,10.20
2023-05-25T05:22:15.406Z,10.40
2023-05-25T05:24:43.136Z,10.50
2023-05-25T05:27:15.950Z,10.60
2023-05-25T05:29:46.217Z,10.80
2023-05-25T05:32:13.395Z,10.90
2023-05-25T05:34:40.444Z,11.00
2023-05-25T05:37:16.659Z,11.10
2023-05-25T05:39:43.808Z,11.30
2023-05-25T05:42:11.161Z,11.40
2023-05-25T05:44:38.154Z,11.50
2023-05-25T05:47:05.693Z,11.70
2023-05-25T05:49:34.280Z,11.80
2023-05-25T05:52:02.698Z,11.90
2023-05-25T05:54:29.633Z,12.10
2023-05-25T05:57:00.171Z,12.20
2023-05-25T05:59:27.489Z,12.30
2023-05-25T06:01:54.749Z,12.50
2023-05-25T06:04:25.214Z,12.60
2023-05-25T06:06:52.295Z,12.80
2023-05-25T06:09:19.244Z,12.90
2023-05-25T06:11:47.369Z,13.00
2023-05-25T06:14:14.572Z,13.20
2023-05-25T06:16:43.630Z,13.30
2023-05-25T06:19:11.315Z,13.50
2023-05-25T06:21:38.159Z,13.60
2023-05-25T06:24:05.736Z,13.70
2023-05-25T06:26:32.855Z,13.80
2023-05-25T06:29:00.062Z,13.90
2023-05-25T06:31:27.196Z,14.00
2023-05-25T06:33:54.844Z,14.20
2023-05-25T06:36:21.953Z,14.30
2023-05-25T06:38:49.323Z,14.40
2023-05-25T06:41:16.448Z,14.50
2023-05-25T06:43:43.632Z,14.60
2023-05-25T06:46:18.724Z,14.70
2023-05-25T06:48:46.379Z,14.80
2023-05-25T06:51:13.813Z,14.90
2023-05-25T06:53:40.691Z,15.00
2023-05-25T06:56:07.570Z,15.10
2023-05-25T06:58:34.429Z,15.20
2023-05-25T07:01:01.611Z,15.30
2023-05-25T07:03:28.763Z,15.40
2023-05-25T07:05:55.776Z,15.50
2023-05-25T07:08:22.880Z,15.60
2023-05-25T07:10:50.447Z,15.70
2023-05-25T07:13:17.500Z,15.80
2023-05-25T07:15:44.823Z,15.90
2023-05-25T07:18:12.924Z,16.00
2023-05-25T07:20:44.480Z,16.10
2023-05-25T07:23:11.869Z,16.30
2023-05-25T07:25:39.890Z,16.40
2023-05-25T07:28:07.554Z,16.50
2023-05-25T07:30:34.679Z,16.60
2023-05-25T07:33:02.129Z,16.70
2023-05-25T07:35:29.180Z,16.80
2023-05-25T07:38:01.628Z,16.90
2023-05-25T07:40:29.113Z,17.10
2023-05-25T07:42:56.370Z,17.20
2023-05-25T07:45:23.311Z,17.20
2023-05-25T07:47:50.454Z,17.40
2023-05-25T07:50:17.772Z,17.50
2023-05-25T07:52:45.609Z,17.60
2023-05-25T07:55:12.499Z,17.70
2023-05-25T07:57:39.631Z,17.80
2023-05-25T08:00:10.913Z,17.90
2023-05-25T08:02:40.989Z,18.00
2023-05-25T08:05:08.565Z,18.10
2023-05-25T08:07:35.801Z,18.20
2023-05-25T08:10:04.624Z,18.30
2023-05-25T08:12:46.985Z,18.40
2023-05-25T08:15:15.944Z,18.50
2023-05-25T08:17:42.939Z,18.60
2023-05-25T08:20:10.594Z,18.70
2023-05-25T08:22:37.864Z,18.80
2023-05-25T08:25:06.697Z,18.90
2023-05-25T08:27:35.808Z,19.00
2023-05-25T08:30:07.149Z,19.10
2023-05-25T08:32:34.345Z,19.20
2023-05-25T08:35:01.956Z,19.20
2023-05-25T08:37:29.327Z,19.30
2023-05-25T08:39:56.377Z,19.30
2023-05-25T08:42:24.115Z,19.40
2023-05-25T08:44:51.296Z,19.40
2023-05-25T08:47:22.566Z,19.50
2023-05-25T08:49:50.848Z,19.60
2023-05-25T08:52:24.091Z,19.60
2023-05-25T08:54:55.439Z,19.70
2023-05-25T08:57:40.286Z,19.80
2023-05-25T09:00:12.837Z,19.80
2023-05-25T09:02:43.083Z,19.90
2023-05-25T09:05:10.382Z,19.90
2023-05-25T09:07:37.408Z,19.90
2023-05-25T09:10:05.339Z,19.90
2023-05-25T09:12:32.500Z,20.00
2023-05-25T09:14:59.790Z,20.00
2023-05-25T09:17:27.147Z,20.10
2023-05-25T09:19:54.941Z,20.10
2023-05-25T09:22:22.626Z,20.20
2023-05-25T09:24:50.254Z,20.30
2023-05-25T09:27:20.205Z,20.40
2023-05-25T09:29:49.392Z,20.50
2023-05-25T09:32:18.827Z,20.50
2023-05-25T09:34:47.184Z,20.60
2023-05-25T09:37:19.000Z,20.60
2023-05-25T09:39:47.702Z,20.70
2023-05-25T09:42:15.078Z,20.80
2023-05-25T09:44:43.122Z,20.90
2023-05-25T09:47:10.647Z,20.90
2023-05-25T09:49:38.501Z,21.00
2023-05-25T09:52:06.593Z,21.10
2023-05-25T09:54:33.701Z,21.10
2023-05-25T09:57:04.410Z,21.20
2023-05-25T09:59:32.084Z,21.30
2023-05-25T10:01:59.785Z,21.40
2023-05-25T10:04:26.721Z,21.50
2023-05-25T10:06:54.212Z,21.50
2023-05-25T10:09:21.842Z,21.70
2023-05-25T10:11:52.766Z,21.70
2023-05-25T10:14:29.287Z,21.80
2023-05-25T10:16:59.834Z,21.90
2023-05-25T10:19:49.339Z,21.90
2023-05-25T10:22:26.393Z,22.00
2023-05-25T10:25:28.983Z,22.00
2023-05-25T10:28:28.542Z,22.10
2023-05-25T10:30:59.910Z,22.20
2023-05-25T10:36:02.995Z,22.40
2023-05-25T10:38:40.190Z,22.50
2023-05-25T10:41:09.818Z,22.60
2023-05-25T10:43:41.160Z,22.70
2023-05-25T10:46:08.927Z,22.70
2023-05-25T10:48:38.440Z,22.80
2023-05-25T10:51:08.215Z,22.90
2023-05-25T10:53:36.368Z,22.90
2023-05-25T10:56:06.602Z,23.00
2023-05-25T10:58:34.328Z,23.00
2023-05-25T11:01:09.285Z,23.00
2023-05-25T11:03:49.076Z,23.10
2023-05-25T11:06:46.303Z,23.10
2023-05-25T11:09:33.676Z,23.20
2023-05-25T11:12:03.483Z,23.30
2023-05-25T11:14:32.765Z,23.30
2023-05-25T11:17:15.557Z,23.30
2023-05-25T11:19:51.183Z,23.40
2023-05-25T11:22:30.429Z,23.40
2023-05-25T11:25:00.662Z,23.40
2023-05-25T11:27:30.442Z,23.40
2023-05-25T11:29:59.339Z,23.40
2023-05-25T11:32:28.412Z,23.30
2023-05-25T11:34:58.099Z,23.30
2023-05-25T11:37:31.061Z,23.30
2023-05-25T11:39:57.958Z,23.30
2023-05-25T11:42:26.152Z,23.30
2023-05-25T11:44:53.554Z,23.40
2023-05-25T11:47:25.731Z,23.40
2023-05-25T11:49:56.242Z,23.40
2023-05-25T11:52:23.735Z,23.50
2023-05-25T11:54:50.935Z,23.50
2023-05-25T11:57:24.376Z,23.50
2023-05-25T11:59:57.190Z,23.60
2023-05-25T12:02:24.701Z,23.60
2023-05-25T12:04:59.655Z,23.60
2023-05-25T12:07:28.877Z,23.60
2023-05-25T12:10:12.566Z,23.50
2023-05-25T12:12:48.702Z,23.60
2023-05-25T12:15:23.861Z,23.60
2023-05-25T12:17:53.489Z,23.60
2023-05-25T12:20:23.684Z,23.70
2023-05-25T12:22:50.921Z,23.70
2023-05-25T12:25:22.413Z,23.70
2023-05-25T12:27:49.699Z,23.70
2023-05-25T12:30:16.799Z,23.70
2023-05-25T12:33:04.243Z,23.70
2023-05-25T12:35:46.628Z,23.80
2023-05-25T12:38:21.803Z,23.80
2023-05-25T12:41:07.002Z,23.80
2023-05-25T12:43:43.033Z,23.80
2023-05-25T12:46:10.056Z,23.80
2023-05-25T12:48:37.127Z,23.90
2023-05-25T12:51:04.389Z,23.80
2023-05-25T12:53:31.398Z,23.80
2023-05-25T12:56:05.604Z,23.70
2023-05-25T12:58:32.693Z,23.60
2023-05-25T13:00:59.654Z,23.60
2023-05-25T13:03:26.597Z,23.50
2023-05-25T13:06:03.173Z,23.50
2023-05-25T13:08:30.351Z,23.50
2023-05-25T13:10:57.413Z,23.50
2023-05-25T13:13:24.544Z,23.50
2023-05-25T13:15:51.347Z,23.50
2023-05-25T13:18:18.559Z,23.50
2023-05-25T13:20:49.796Z,23.40
2023-05-25T13:23:18.302Z,23.40
2023-05-25T13:25:46.311Z,23.40
2023-05-25T13:28:13.154Z,23.40
2023-05-25T13:30:40.012Z,23.40
2023-05-25T13:33:07.134Z,23.40
2023-05-25T13:35:41.372Z,23.40
2023-05-25T13:38:09.770Z,23.40
2023-05-25T13:40:36.679Z,23.30
2023-05-25T13:43:03.781Z,23.30
2023-05-25T13:45:30.649Z,23.40
2023-05-25T13:47:57.619Z,23.40
2023-05-25T13:50:24.607Z,23.50
2023-05-25T13:52:51.615Z,23.50
2023-05-25T13:55:18.532Z,23.50
2023-05-25T13:57:45.490Z,23.50
2023-05-25T14:00:14.207Z,23.50
2023-05-25T14:02:41.499Z,23.60
2023-05-25T14:05:08.868Z,23.60
2023-05-25T14:07:35.784Z,23.60
2023-05-25T14:10:02.820Z,23.60
2023-05-25T14:12:29.891Z,23.60
2023-05-25T14:14:56.693Z,23.60
2023-05-25T14:17:24.684Z,23.60
2023-05-25T14:19:51.692Z,23.60
2023-05-25T14:22:19.385Z,23.60
2023-05-25T14:24:46.246Z,23.60
2023-05-25T14:27:13.354Z,23.60
2023-05-25T14:29:40.234Z,23.70
2023-05-25T14:32:07.111Z,23.70
2023-05-25T14:34:33.961Z,23.70
2023-05-25T14:37:00.826Z,23.80
2023-05-25T14:39:27.666Z,23.80
2023-05-25T14:41:54.519Z,23.80
2023-05-25T14:44:21.392Z,23.80
2023-05-25T14:46:48.250Z,23.80
2023-05-25T14:49:16.740Z,23.90
2023-05-25T14:51:43.889Z,23.90
2023-05-25T14:54:13.476Z,23.90
2023-05-25T14:56:40.619Z,23.90
2023-05-25T14:59:07.845Z,23.90
2023-05-25T15:01:36.329Z,23.90
2023-05-25T15:04:03.748Z,23.90
2023-05-25T15:06:31.986Z,23.90
2023-05-25T15:08:59.078Z,23.90
2023-05-25T15:11:27.064Z,23.90
2023-05-25T15:13:54.117Z,24.00
2023-05-25T15:16:21.132Z,24.00
2023-05-25T15:18:48.285Z,24.00
2023-05-25T15:21:15.137Z,24.00
2023-05-25T15:23:42.077Z,24.10
2023-05-25T15:26:11.457Z,24.10
2023-05-25T15:28:38.393Z,24.10
2023-05-25T15:31:05.509Z,24.10
2023-05-25T15:33:49.534Z,24.10
2023-05-25T15:36:18.965Z,24.20
2023-05-25T15:38:48.922Z,24.20
2023-05-25T15:41:17.150Z,24.20
2023-05-25T15:43:58.411Z,24.20
2023-05-25T15:46:25.787Z,24.30
2023-05-25T15:48:53.401Z,24.30
2023-05-25T15:51:20.970Z,24.30
2023-05-25T15:53:48.297Z,24.30
2023-05-25T15:56:15.170Z,24.30
2023-05-25T15:58:42.438Z,24.20
2023-05-25T16:01:10.746Z,24.20
2023-05-25T16:03:39.388Z,24.20
2023-05-25T16:06:06.534Z,24.10
2023-05-25T16:08:33.466Z,24.10
2023-05-25T16:11:00.390Z,24.10
2023-05-25T16:13:27.246Z,24.00
2023-05-25T16:15:54.169Z,23.90
2023-05-25T16:18:21.308Z,23.90
2023-05-25T16:20:55.505Z,23.80
2023-05-25T16:23:23.708Z,23.80
2023-05-25T16:25:50.905Z,23.70
2023-05-25T16:28:17.832Z,23.60
2023-05-25T16:30:44.870Z,23.60
2023-05-25T16:33:11.928Z,23.50
2023-05-25T16:35:38.908Z,23.40
2023-05-25T16:38:05.753Z,23.40
2023-05-25T16:40:33.374Z,23.40
2023-05-25T16:43:00.414Z,23.30
2023-05-25T16:45:27.308Z,23.30
2023-05-25T16:47:54.777Z,23.30
2023-05-25T16:50:22.522Z,23.20
2023-05-25T16:52:49.614Z,23.20
2023-05-25T16:55:16.642Z,23.20
2023-05-25T16:57:43.497Z,23.20
2023-05-25T17:00:11.685Z,23.10
2023-05-25T17:02:38.653Z,23.10
2023-05-25T17:05:06.840Z,23.00
2023-05-25T17:07:34.872Z,23.00
2023-05-25T17:10:02.537Z,23.00
2023-05-25T17:12:29.667Z,22.90
2023-05-25T17:14:56.554Z,22.90
2023-05-25T17:17:24.249Z,22.80
2023-05-25T17:19:52.727Z,22.80
2023-05-25T17:22:19.579Z,22.70
2023-05-25T17:24:46.813Z,22.70
2023-05-25T17:27:13.761Z,22.60
2023-05-25T17:29:41.657Z,22.50
2023-05-25T17:32:08.650Z,22.50
2023-05-25T17:34:35.661Z,22.40
2023-05-25T17:37:02.493Z,22.40
2023-05-25T17:39:29.361Z,22.30
2023-05-25T17:41:56.325Z,22.20
2023-05-25T17:44:23.269Z,22.10
2023-05-25T17:46:50.149Z,22.10
2023-05-25T17:49:16.966Z,22.00
2023-05-25T17:51:44.092Z,21.90
2023-05-25T17:54:15.550Z,21.80
2023-05-25T17:56:42.456Z,21.70
2023-05-25T17:59:09.883Z,21.70
2023-05-25T18:01:38.376Z,21.70
2023-05-25T18:04:05.474Z,21.60
2023-05-25T18:06:32.493Z,21.60
2023-05-25T18:08:59.632Z,21.50
2023-05-25T18:11:28.250Z,21.50
2023-05-25T18:13:55.192Z,21.40
2023-05-25T18:16:22.161Z,21.30
2023-05-25T18:18:49.047Z,21.30
2023-05-25T18:21:15.903Z,21.20
2023-05-25T18:23:43.009Z,21.20
2023-05-25T18:26:09.867Z,21.10
2023-05-25T18:28:36.657Z,21.10
2023-05-25T18:31:03.524Z,21.00
2023-05-25T18:33:30.437Z,21.00
2023-05-25T18:35:58.245Z,20.90
2023-05-25T18:38:25.348Z,20.90
2023-05-25T18:40:52.242Z,20.80
2023-05-25T18:43:19.076Z,20.80
2023-05-25T18:45:46.095Z,20.70
2023-05-25T18:48:13.173Z,20.60
2023-05-25T18:50:41.980Z,20.50
2023-05-25T18:53:10.608Z,20.40
2023-05-25T18:55:37.795Z,20.30
2023-05-25T18:58:04.750Z,20.30
2023-05-25T19:00:31.593Z,20.20
2023-05-25T19:02:58.610Z,20.10
2023-05-25T19:05:25.698Z,20.00
2023-05-25T19:07:58.895Z,19.90
2023-05-25T19:10:27.366Z,19.80
2023-05-25T19:12:54.440Z,19.70
2023-05-25T19:15:21.576Z,19.50
2023-05-25T19:17:48.479Z,19.50
2023-05-25T19:20:15.849Z,19.40
2023-05-25T19:22:42.737Z,19.40
2023-05-25T19:25:09.713Z,19.30
2023-05-25T19:27:36.602Z,19.20
2023-05-25T19:30:03.937Z,19.20
2023-05-25T19:32:31.157Z,19.10
2023-05-25T19:34:58.125Z,19.00
2023-05-25T19:37:26.206Z,19.00
2023-05-25T19:39:53.184Z,18.90
2023-05-25T19:42:20.073Z,18.90
2023-05-25T19:44:46.971Z,18.80
2023-05-25T19:47:13.992Z,18.80
2023-05-25T19:49:41.151Z,18.70
2023-05-25T19:52:08.049Z,18.60
2023-05-25T19:54:35.019Z,18.60
2023-05-25T19:57:02.851Z,18.50
2023-05-25T19:59:31.133Z,18.50
2023-05-25T20:01:58.563Z,18.40
2023-05-25T20:04:25.748Z,18.40
2023-05-25T20:06:53.798Z,18.30
2023-05-25T20:09:29.621Z,18.30
2023-05-25T20:12:00.178Z,18.20
2023-05-25T20:14:27.359Z,18.20
2023-05-25T20:16:56.873Z,18.10
2023-05-25T20:19:23.712Z,18.10
2023-05-25T20:21:51.163Z,18.00
2023-05-25T20:24:18.220Z,17.90
2023-05-25T20:26:45.197Z,17.90
2023-05-25T20:29:12.192Z,17.80
2023-05-25T20:31:39.117Z,17.70
2023-05-25T20:34:06.315Z,17.70
2023-05-25T20:36:33.215Z,17.60
2023-05-25T20:39:00.309Z,17.50
2023-05-25T20:41:32.282Z,17.40
2023-05-25T20:43:59.254Z,17.40
2023-05-25T20:46:26.769Z,17.30
2023-05-25T20:48:53.742Z,17.30
2023-05-25T20:51:21.667Z,17.20
2023-05-25T20:53:48.522Z,17.10
2023-05-25T20:56:15.421Z,17.10
2023-05-25T20:58:42.356Z,17.00
2023-05-25T21:01:09.366Z,16.90
2023-05-25T21:03:36.575Z,16.90
2023-05-25T21:06:03.899Z,16.80
2023-05-25T21:08:31.910Z,16.80
2023-05-25T21:10:59.057Z,16.70
2023-05-25T21:13:26.104Z,16.60
2023-05-25T21:15:52.995Z,16.60
2023-05-25T21:18:20.144Z,16.50
2023-05-25T21:20:47.065Z,16.40
2023-05-25T21:23:13.927Z,16.30
2023-05-25T21:25:43.891Z,16.30
2023-05-25T21:28:11.052Z,16.30
2023-05-25T21:30:37.888Z,16.20
2023-05-25T21:33:04.764Z,16.10
2023-05-25T21:35:31.664Z,16.10
2023-05-25T21:37:58.774Z,16.00
2023-05-25T21:40:25.912Z,16.00
2023-05-25T21:42:53.323Z,15.90
2023-05-25T21:45:20.914Z,15.90
2023-05-25T21:47:47.994Z,15.80
2023-05-25T21:50:15.058Z,15.80
2023-05-25T21:52:42.085Z,15.70
2023-05-25T21:55:09.347Z,15.70
2023-05-25T21:57:36.251Z,15.60
2023-05-25T22:00:05.110Z,15.50
2023-05-25T22:02:39.671Z,15.50
2023-05-25T22:05:07.066Z,15.40
2023-05-25T22:07:33.957Z,15.40
2023-05-25T22:10:00.824Z,15.30
2023-05-25T22:12:27.674Z,15.30
2023-05-25T22:14:54.539Z,15.20
2023-05-25T22:17:21.474Z,15.20
2023-05-25T22:19:58.931Z,15.10
2023-05-25T22:22:33.987Z,15.10
2023-05-25T22:25:01.448Z,15.00
2023-05-25T22:27:28.566Z,15.00
2023-05-25T22:29:55.820Z,15.00
2023-05-25T22:32:23.484Z,14.90
2023-05-25T22:34:50.462Z,14.90
2023-05-25T22:37:17.606Z,14.80
2023-05-25T22:39:44.714Z,14.80
2023-05-25T22:42:11.628Z,14.70
2023-05-25T22:44:38.691Z,14.70
2023-05-25T22:47:06.864Z,14.60
2023-05-25T22:49:41.277Z,14.60
2023-05-25T22:52:12.071Z,14.50
2023-05-25T22:54:39.735Z,14.50
2023-05-25T22:57:09.087Z,14.50
2023-05-25T22:59:36.655Z,14.40
2023-05-25T23:02:04.037Z,14.40
2023-05-25T23:04:31.365Z,14.30
2023-05-25T23:06:58.221Z,14.30
2023-05-25T23:09:25.111Z,14.30
2023-05-25T23:11:51.963Z,14.20
2023-05-25T23:14:18.885Z,14.20
2023-05-25T23:16:48.496Z,14.10
2023-05-25T23:19:16.962Z,14.10
2023-05-25T23:21:44.164Z,14.00
2023-05-25T23:24:11.037Z,14.00
2023-05-25T23:26:37.865Z,13.90
2023-05-25T23:29:04.909Z,13.90
2023-05-25T23:31:32.187Z,13.90
2023-05-25T23:33:59.073Z,13.80
2023-05-25T23:36:26.099Z,13.80
2023-05-25T23:38:53.112Z,13.70
2023-05-25T23:41:20.241Z,13.70
2023-05-25T23:43:47.303Z,13.70
2023-05-25T23:46:17.360Z,13.60
2023-05-25T23:48:46.096Z,13.60
2023-05-25T23:51:13.019Z,13.50
2023-05-25T23:53:39.909Z,13.50
2023-05-25T23:56:07.054Z,13.40
2023-05-25T23:58:33.958Z,13.40
